Latest Weather Observations for Luncheon Hill

IDT60801

Issued at 12:05 am EST Thursday 24 July 2014 (issued every 30 minutes, with the page automatically refreshed every 10 minutes)

About weather observations | Map of weather stations | Latest weather observations for TAS | Other Formats
Station Details ID: 091259 Name: LUNCHEON HILL (FORESTRY) Lat: -41.15 Lon: 145.15 Height: 344.0 m
Data from the previous 72 hours. | See also: Recent months at Luncheon Hill
Date/Time
EST
Temp
°C
App
Temp
°C
Dew
Point
Rel
Hum
%
Delta-T
°C
Wind Press
QNH
hPa
Press
MSL
hPa
Rain
since 9 am
mm
Dir
 
Spd
km/h
Gust
km/h
Spd
kts
Gust
kts
24/12:00am 5.7 0.1 5.6 99 0.0 ENE 24 35 13 19 - - 0.0
 
Date/Time
EST
Temp
°C
App
Temp
°C
Dew
Point
Rel
Hum
%
Delta-T
°C
Wind Press
QNH
hPa
Press
MSL
hPa
Rain
since 9 am
mm
Dir
 
Spd
km/h
Gust
km/h
Spd
kts
Gust
kts
23/11:30pm 5.9 0.4 5.8 99 0.0 ENE 24 32 13 17 - - 0.0
23/11:00pm 5.8 0.6 5.7 99 0.0 ENE 22 32 12 17 - - 0.0
23/10:30pm 5.7 0.5 5.6 99 0.0 ENE 22 30 12 16 - - 0.0
23/10:00pm 5.8 1.0 5.7 99 0.0 ENE 20 30 11 16 - - 0.0
23/09:30pm 5.5 0.7 5.4 99 0.0 ENE 20 28 11 15 - - 0.0
23/09:00pm 5.5 0.6 5.2 98 0.1 E 20 28 11 15 - - 0.0
23/08:30pm 5.7 0.8 5.3 97 0.2 ENE 20 28 11 15 - - 0.0
23/08:00pm 6.0 1.2 5.6 97 0.2 ENE 20 28 11 15 - - 0.0
23/07:30pm 6.1 1.3 5.5 96 0.3 ENE 20 26 11 14 - - 0.0
23/07:00pm 6.2 1.4 5.5 95 0.3 ENE 20 24 11 13 - - 0.0
23/06:30pm 6.4 1.6 5.5 94 0.4 ENE 20 26 11 14 - - 0.0
23/06:00pm 6.7 1.9 5.7 93 0.5 ENE 20 24 11 13 - - 0.0
23/05:30pm 7.0 2.4 5.6 91 0.6 NE 19 20 10 11 - - 0.0
23/05:00pm 7.6 3.1 5.9 89 0.8 NE 19 22 10 12 - - 0.0
23/04:30pm 8.3 3.7 5.8 84 1.2 NE 19 20 10 11 - - 0.0
23/04:00pm 8.4 3.9 6.0 85 1.1 ENE 19 22 10 12 - - 0.0
23/03:30pm 9.6 5.8 5.8 77 1.8 ENE 15 20 8 11 - - 0.0
23/03:00pm 9.2 4.7 5.9 80 1.5 NE 19 24 10 13 - - 0.0
23/02:30pm 9.5 5.8 6.2 80 1.6 NE 15 20 8 11 - - 0.0
23/02:00pm 11.3 7.5 7.6 78 1.8 NE 17 20 9 11 - - 0.0
23/01:30pm 11.7 7.9 7.6 76 2.0 NNE 17 26 9 14 - - 0.0
23/01:00pm 9.4 5.8 6.8 84 1.2 NNE 15 17 8 9 - - 0.0
23/12:30pm 11.5 7.8 7.8 78 1.8 N 17 22 9 12 - - 0.0
23/12:00pm 11.7 7.4 7.0 73 2.3 NNE 19 26 10 14 - - 0.0
23/11:30am 11.6 8.2 7.5 76 2.0 NNE 15 20 8 11 - - 0.0
23/11:00am 10.9 6.9 6.8 76 2.0 ENE 17 20 9 11 - - 0.0
23/10:30am 10.2 6.9 6.5 78 1.8 ENE 13 17 7 9 - - 0.0
23/10:00am 9.6 6.2 6.0 78 1.7 ENE 13 15 7 8 - - 0.0
23/09:30am 9.1 6.0 5.5 78 1.7 ENE 11 13 6 7 - - 0.0
23/09:00am 8.2 5.0 5.1 81 1.4 ESE 11 13 6 7 - - 0.2
23/08:30am 7.1 4.2 4.6 84 1.1 ESE 9 13 5 7 - - 0.2
23/08:00am 6.5 3.5 4.3 86 1.0 ESE 9 11 5 6 - - 0.2
23/07:30am 6.4 3.4 4.2 86 1.0 ESE 9 11 5 6 - - 0.2
23/07:00am 6.4 4.0 4.2 86 1.0 SE 6 9 3 5 - - 0.2
23/06:30am 6.5 3.5 4.3 86 1.0 SSE 9 11 5 6 - - 0.2
23/06:00am 6.6 3.7 4.8 88 0.8 SE 9 13 5 7 - - 0.2
23/05:30am 6.6 3.7 4.8 88 0.8 SSE 9 13 5 7 - - 0.2
23/05:00am 6.6 3.7 4.8 88 0.8 SSE 9 11 5 6 - - 0.2
23/04:30am 6.4 3.5 4.4 87 0.9 SSE 9 11 5 6 - - 0.2
23/04:00am 6.4 3.4 4.2 86 1.0 SE 9 13 5 7 - - 0.2
23/03:30am 6.9 5.7 4.4 84 1.1 CALM 0 0 0 0 - - 0.0
23/03:00am 6.3 5.1 4.6 89 0.8 CALM 0 0 0 0 - - 0.0
23/02:30am 6.5 5.3 4.5 87 0.9 CALM 0 0 0 0 - - 0.0
23/02:00am 6.9 5.8 5.1 88 0.8 CALM 0 6 0 3 - - 0.0
23/01:30am 6.3 4.1 5.1 92 0.5 ESE 6 7 3 4 - - 0.0
23/01:00am 6.7 4.4 5.7 93 0.5 ESE 7 9 4 5 - - 0.0
23/12:30am 6.5 4.2 5.6 94 0.4 ESE 7 11 4 6 - - 0.0
23/12:00am 6.5 4.2 5.6 94 0.4 ESE 7 9 4 5 - - 0.0
 
Date/Time
EST
Temp
°C
App
Temp
°C
Dew
Point
Rel
Hum
%
Delta-T
°C
Wind Press
QNH
hPa
Press
MSL
hPa
Rain
since 9 am
mm
Dir
 
Spd
km/h
Gust
km/h
Spd
kts
Gust
kts
22/11:30pm 6.3 4.5 5.4 94 0.4 ESE 4 11 2 6 - - 0.0
22/11:00pm 6.3 5.3 5.6 95 0.3 CALM 0 0 0 0 - - 0.0
22/10:30pm 5.8 4.3 4.9 94 0.4 NNE 2 6 1 3 - - 0.0
22/10:00pm 6.0 3.1 4.8 92 0.5 N 9 9 5 5 - - 0.0
22/09:30pm 6.9 4.5 5.4 90 0.7 N 7 9 4 5 - - 0.0
22/09:00pm 6.8 5.7 5.3 90 0.7 CALM 0 0 0 0 - - 0.0
22/08:30pm 7.4 6.4 5.5 88 0.9 CALM 0 0 0 0 - - 0.0
22/08:00pm 6.9 5.8 5.1 88 0.8 CALM 0 0 0 0 - - 0.0
22/07:30pm 7.5 6.4 5.1 85 1.1 CALM 0 0 0 0 - - 0.0
22/07:00pm 7.8 6.7 5.3 84 1.1 CALM 0 0 0 0 - - 0.0
22/06:30pm 7.9 6.9 5.5 85 1.1 CALM 0 0 0 0 - - 0.0
22/06:00pm 7.9 6.9 5.5 85 1.1 CALM 0 0 0 0 - - 0.0
22/05:30pm 8.0 5.9 5.8 86 1.0 SSW 6 7 3 4 - - 0.0
22/05:00pm 8.5 7.5 5.4 81 1.4 CALM 0 0 0 0 - - 0.0
22/04:30pm 8.9 6.6 5.8 81 1.4 WNW 7 9 4 5 - - 0.0
22/04:00pm 9.4 7.4 6.1 80 1.5 W 6 7 3 4 - - 0.0
22/03:30pm 9.9 7.7 6.2 78 1.7 W 7 9 4 5 - - 0.0
22/03:00pm 10.0 8.0 6.2 77 1.8 WNW 6 11 3 6 - - 0.0
22/02:30pm 10.7 8.0 5.7 71 2.4 W 9 13 5 7 - - 0.0
22/02:00pm 10.0 7.4 6.2 77 1.8 SSW 9 11 5 6 - - 0.0
22/01:30pm 11.1 8.9 6.3 72 2.3 WNW 7 15 4 8 - - 0.0
22/01:00pm 11.4 8.9 6.7 73 2.3 N 9 13 5 7 - - 0.0
22/12:30pm 10.1 7.4 5.5 73 2.1 NNW 9 13 5 7 - - 0.0
22/12:00pm 10.3 7.3 6.1 75 2.0 N 11 13 6 7 - - 0.0
22/11:30am 10.3 7.6 5.7 73 2.2 NNW 9 13 5 7 - - 0.0
22/11:00am 11.3 8.5 6.8 74 2.2 N 11 13 6 7 - - 0.0
22/10:30am 9.3 6.7 5.9 79 1.6 ENE 9 11 5 6 - - 0.0
22/10:00am 9.4 7.1 5.8 78 1.7 ENE 7 11 4 6 - - 0.0
22/09:30am 7.7 4.4 4.8 82 1.3 NE 11 11 6 6 - - 0.0
22/09:00am 7.3 4.4 4.8 84 1.1 NNE 9 11 5 6 - - 0.2
22/08:30am 7.1 3.4 4.4 83 1.2 ENE 13 17 7 9 - - 0.2
22/08:00am 6.2 2.5 4.4 88 0.8 NE 13 15 7 8 - - 0.2
22/07:30am 4.7 0.8 3.4 91 0.5 ENE 13 13 7 7 - - 0.2
22/07:00am 4.1 0.4 2.1 87 0.8 ENE 11 13 6 7 - - 0.2
22/06:30am 4.7 1.0 2.6 86 0.9 E 11 13 6 7 - - 0.2
22/06:00am 4.7 1.5 2.9 88 0.8 E 9 11 5 6 - - 0.2
22/05:30am 4.4 0.7 2.4 87 0.8 ENE 11 13 6 7 - - 0.2
22/05:00am 4.6 0.9 2.5 86 0.9 ENE 11 15 6 8 - - 0.2
22/04:30am 4.6 1.3 2.5 86 0.9 E 9 11 5 6 - - 0.2
22/04:00am 4.3 1.0 2.5 88 0.7 ENE 9 11 5 6 - - 0.2
22/03:30am 4.4 1.2 2.8 89 0.7 ENE 9 11 5 6 - - 0.2
22/03:00am 4.9 1.7 2.8 86 0.9 NE 9 11 5 6 - - 0.2
22/02:30am 5.1 1.6 3.4 89 0.7 NE 11 13 6 7 - - 0.0
22/02:00am 4.9 1.4 3.4 90 0.6 ENE 11 13 6 7 - - 0.0
22/01:30am 4.9 1.4 3.6 91 0.6 E 11 13 6 7 - - 0.0
22/01:00am 5.2 1.1 4.2 93 0.4 ENE 15 15 8 8 - - 0.0
22/12:30am 5.2 1.9 4.3 94 0.4 NE 11 17 6 9 - - 0.0
22/12:00am 4.9 1.2 4.2 95 0.3 E 13 15 7 8 - - 0.0
 
Date/Time
EST
Temp
°C
App
Temp
°C
Dew
Point
Rel
Hum
%
Delta-T
°C
Wind Press
QNH
hPa
Press
MSL
hPa
Rain
since 9 am
mm
Dir
 
Spd
km/h
Gust
km/h
Spd
kts
Gust
kts
21/11:30pm 5.0 1.7 4.4 96 0.3 E 11 13 6 7 - - 0.0
21/11:00pm 4.9 2.0 4.5 97 0.2 ENE 9 11 5 6 - - 0.0
21/10:30pm 4.9 1.6 4.3 96 0.3 ENE 11 11 6 6 - - 0.0
21/10:00pm 5.2 1.9 4.5 95 0.3 ENE 11 13 6 7 - - 0.0
21/09:30pm 5.8 2.2 5.2 96 0.3 ENE 13 13 7 7 - - 0.0
21/09:00pm 5.9 2.4 5.3 96 0.3 ENE 13 13 7 7 - - 0.0
21/08:30pm 5.8 2.2 5.1 95 0.3 ENE 13 15 7 8 - - 0.0
21/08:00pm 6.2 3.1 5.5 95 0.3 E 11 13 6 7 - - 0.0
21/07:30pm 6.3 3.2 5.6 95 0.3 E 11 15 6 8 - - 0.0
21/07:00pm 6.3 2.8 5.3 93 0.4 ENE 13 15 7 8 - - 0.0
21/06:30pm 6.9 3.0 5.5 91 0.6 NE 15 17 8 9 - - 0.0
21/06:00pm 7.2 3.5 4.7 84 1.1 NE 13 17 7 9 - - 0.0
21/05:30pm 7.2 3.8 4.2 81 1.3 NE 11 13 6 7 - - 0.0
21/05:00pm 8.0 4.8 5.1 82 1.3 NE 11 13 6 7 - - 0.0
21/04:30pm 8.4 5.7 5.5 82 1.3 NNE 9 11 5 6 - - 0.0
21/04:00pm 9.7 6.6 5.7 76 1.9 NNE 11 17 6 9 - - 0.0
21/03:30pm 10.6 7.3 6.6 76 1.9 N 13 17 7 9 - - 0.0
21/03:00pm 10.6 7.0 6.6 76 1.9 NNE 15 20 8 11 - - 0.0
21/02:30pm 10.4 7.1 6.4 76 1.9 N 13 17 7 9 - - 0.0
21/02:00pm 10.9 7.6 6.6 75 2.1 NNE 13 20 7 11 - - 0.0
21/01:30pm 12.0 9.0 7.5 74 2.2 NNE 13 19 7 10 - - 0.0
21/01:00pm 11.4 8.2 6.7 73 2.3 N 13 19 7 10 - - 0.0
21/12:30pm 11.6 8.6 7.5 76 2.0 NNE 13 19 7 10 - - 0.0
21/12:00pm 10.9 7.3 6.8 76 2.0 NNE 15 22 8 12 - - 0.0
21/11:30am 9.6 6.7 6.7 82 1.4 NE 11 15 6 8 - - 0.0
21/11:00am 9.6 6.4 6.7 82 1.4 NE 13 17 7 9 - - 0.0
21/10:30am 9.1 5.8 6.4 83 1.3 NE 13 17 7 9 - - 0.0
21/10:00am 7.8 4.4 5.9 88 0.9 E 13 15 7 8 - - 0.0
21/09:30am 6.5 3.4 5.5 93 0.5 E 11 15 6 8 - - 0.0
21/09:00am 5.5 1.5 4.8 95 0.3 E 15 17 8 9 - - 0.2
21/08:30am 4.9 0.5 4.5 97 0.2 E 17 20 9 11 - - 0.2
21/08:00am 4.6 0.1 4.3 98 0.1 ESE 17 20 9 11 - - 0.2
21/07:30am 4.6 0.1 4.3 98 0.1 E 17 19 9 10 - - 0.2
21/07:00am 4.5 0.4 4.2 98 0.1 ESE 15 19 8 10 - - 0.2
21/06:30am 4.2 0.0 3.8 97 0.2 ESE 15 19 8 10 - - 0.2
21/06:00am 4.6 0.4 4.0 96 0.3 E 15 19 8 10 - - 0.2
21/05:30am 4.6 0.0 3.9 95 0.3 ENE 17 19 9 10 - - 0.2
21/05:00am 4.6 0.0 3.6 93 0.4 ENE 17 19 9 10 - - 0.2
21/04:30am 4.6 -0.5 2.9 89 0.7 ENE 19 22 10 12 - - 0.2
21/04:00am 4.7 -0.5 2.4 85 0.9 ENE 19 22 10 12 - - 0.2
21/03:30am 4.8 -0.4 2.3 84 1.0 ENE 19 20 10 11 - - 0.2
21/03:00am 4.6 0.1 2.3 85 0.9 ENE 15 19 8 10 - - 0.2
21/02:30am 4.6 0.1 2.3 85 0.9 E 15 17 8 9 - - 0.2
21/02:00am 5.0 0.9 2.5 84 1.0 E 13 19 7 10 - - 0.2
21/01:30am 4.8 0.4 2.5 85 1.0 ENE 15 19 8 10 - - 0.2
21/01:00am 4.9 0.5 2.8 86 0.9 E 15 19 8 10 - - 0.2
21/12:30am 4.9 1.0 3.6 91 0.6 E 13 15 7 8 - - 0.2

Other Formats:

Comma delimited format used in spreadsheet applications
http://www.bom.gov.au/fwo/IDT60801/IDT60801.95956.axf

JavaScript Object Notation format (JSON) in row-major order
http://www.bom.gov.au/fwo/IDT60801/IDT60801.95956.json